Time;durP1;ratioP1;P1;durP2;ratioP2;P2;SDS_P1;SDS_P2;PMS_P1;PMS_P2;Temp;Humidity;BMP_temperature;BMP_pressure;BME280_temperature;BME280_humidity;BME280_pressure;Samples;Min_cycle;Max_cycle;Signal;HPM_P1;HPM_P2
2022/09/23 00:02:22;;;;;;;;;26.20;24.60;;;;;15.24;57.24;99766.03;5067457;28;9066;-75
2022/09/23 00:04:50;;;;;;;;;25.20;24.80;;;;;15.23;57.51;99766.06;5067660;28;8953;-76
2022/09/23 00:07:20;;;;;;;;;25.00;24.60;;;;;15.19;57.48;99765.25;5100655;28;8854;-74
2022/09/23 00:09:50;;;;;;;;;36.75;31.50;;;;;15.17;57.41;99761.78;5071355;28;8959;-77
2022/09/23 00:12:18;;;;;;;;;26.40;25.40;;;;;15.14;57.53;99767.97;5071072;28;8862;-75
2022/09/23 00:14:46;;;;;;;;;32.60;26.60;;;;;15.13;57.77;99760.09;5035674;28;8982;-75
2022/09/23 00:17:15;;;;;;;;;31.00;30.40;;;;;15.11;57.93;99761.88;5070016;28;9628;-76
2022/09/23 00:19:43;;;;;;;;;29.20;27.20;;;;;15.08;57.81;99761.91;5069922;28;8980;-75
2022/09/23 00:22:12;;;;;;;;;28.25;28.25;;;;;15.08;57.84;99768.03;5040692;28;8852;-75
2022/09/23 00:24:42;;;;;;;;;32.40;31.20;;;;;15.04;58.10;99760.22;5068683;28;8859;-76
2022/09/23 00:27:11;;;;;;;;;32.25;31.25;;;;;15.04;57.85;99761.09;5068817;28;8910;-76
2022/09/23 00:29:39;;;;;;;;;33.75;31.75;;;;;15.01;58.16;99753.28;5067373;28;8978;-76
2022/09/23 00:32:07;;;;;;;;;39.50;34.00;;;;;15.00;57.76;99760.28;5068923;28;8856;-74
2022/09/23 00:34:36;;;;;;;;;35.75;32.00;;;;;15.00;58.15;99756.78;5068668;28;8859;-75
2022/09/23 00:37:05;;;;;;;;;32.00;27.25;;;;;14.97;58.13;99749.84;5068389;28;8864;-75
2022/09/23 00:39:33;;;;;;;;;28.00;27.00;;;;;14.88;58.06;99757.84;5068350;28;8988;-76
2022/09/23 00:42:03;;;;;;;;;29.40;25.00;;;;;14.85;58.34;99755.25;5068436;28;8954;-75
2022/09/23 00:44:44;;;;;;;;;30.60;27.80;;;;;14.94;58.39;99751.63;5068240;28;9000;-75
2022/09/23 00:47:19;;;;;;;;;30.40;29.80;;;;;14.80;58.19;99751.81;5047425;28;9031;-75
2022/09/23 00:49:51;;;;;;;;;29.00;24.60;;;;;14.81;58.74;99754.44;5031785;28;8900;-76
2022/09/23 00:52:24;;;;;;;;;29.20;23.20;;;;;14.82;58.59;99756.19;5049271;28;8838;-75
2022/09/23 00:54:56;;;;;;;;;27.60;25.20;;;;;14.79;58.71;99756.22;5068247;28;8856;-76
2022/09/23 00:57:28;;;;;;;;;22.40;22.20;;;;;14.77;58.94;99750.13;5085447;28;8851;-76
2022/09/23 00:59:57;;;;;;;;;25.80;23.40;;;;;14.75;58.82;99748.41;5035011;28;8986;-75
2022/09/23 01:02:27;;;;;;;;;24.80;23.60;;;;;14.75;59.03;99759.78;5085031;28;8955;-76
2022/09/23 01:04:55;;;;;;;;;29.00;25.40;;;;;14.76;58.95;99758.91;5088626;28;8939;-76
2022/09/23 01:07:24;;;;;;;;;30.40;27.20;;;;;14.73;58.79;99755.44;5088422;28;8893;-75
2022/09/23 01:09:53;;;;;;;;;24.80;23.00;;;;;14.72;58.85;99753.69;5088189;28;8853;-76
2022/09/23 01:12:50;;;;;;;;;23.40;21.40;;;;;14.87;58.46;99750.84;5088000;28;8974;-75
2022/09/23 01:15:21;;;;;;;;;32.60;27.60;;;;;14.69;59.00;99754.63;5087834;28;8861;-75
2022/09/23 01:18:01;;;;;;;;;27.00;21.60;;;;;14.77;59.04;99757.13;5070770;28;8959;-75
2022/09/23 01:20:49;;;;;;;;;28.40;25.60;;;;;14.73;59.12;99751.06;5089391;28;8848;-75
2022/09/23 01:23:41;;;;;;;;;29.00;24.80;;;;;14.72;59.22;99746.69;5089993;28;8863;-75
2022/09/23 01:26:37;;;;;;;;;23.50;23.50;;;;;14.75;59.00;99744.03;5085893;28;8968;-75
2022/09/23 01:29:40;;;;;;;;;27.25;26.50;;;;;14.81;58.95;99751.81;5051495;28;8972;-75
2022/09/23 01:32:17;;;;;;;;;26.80;24.80;;;;;14.72;59.53;99754.56;5067939;28;8973;-76
2022/09/23 01:34:50;;;;;;;;;28.60;26.20;;;;;14.69;59.17;99761.59;5070011;28;8881;-76
2022/09/23 01:37:27;;;;;;;;;21.80;21.60;;;;;14.65;59.57;99757.28;5087024;28;8847;-76
2022/09/23 01:40:04;;;;;;;;;25.20;23.60;;;;;14.70;59.23;99752.84;5105507;28;8906;-74
2022/09/23 01:42:39;;;;;;;;;23.20;22.40;;;;;14.62;59.65;99745.09;5085190;28;8892;-75
2022/09/23 01:45:15;;;;;;;;;29.75;25.50;;;;;14.59;59.88;99747.75;5102667;28;8870;-76
2022/09/23 01:47:51;;;;;;;;;13.40;10.80;;;;;14.61;59.68;99744.22;5069901;28;8985;-75
2022/09/23 01:53:15;;;;;;;;;23.20;22.40;;;;;14.52;59.51;99746.94;5080983;28;8871;-75
2022/09/23 01:55:48;;;;;;;;;29.40;27.60;;;;;14.48;59.97;99739.09;5088837;28;8898;-75
2022/09/23 01:58:25;;;;;;;;;26.80;22.60;;;;;14.52;59.91;99740.84;5089704;28;8832;-74
2022/09/23 02:00:59;;;;;;;;;26.20;23.80;;;;;14.46;59.75;99741.78;5068161;28;8861;-74
2022/09/23 02:03:33;;;;;;;;;26.40;23.40;;;;;14.49;59.79;99743.47;5050816;28;8877;-75
2022/09/23 02:06:07;;;;;;;;;27.60;22.60;;;;;14.46;59.79;99739.16;5069752;28;9564;-76
2022/09/23 02:08:41;;;;;;;;;24.60;22.60;;;;;14.37;60.02;99737.50;5068876;28;8834;-74
2022/09/23 02:11:13;;;;;;;;;22.00;22.00;;;;;14.37;59.85;99734.88;5084152;28;8985;-75
2022/09/23 02:13:48;;;;;;;;;28.80;23.00;;;;;14.39;59.94;99724.38;5069454;28;8998;-75
2022/09/23 02:16:25;;;;;;;;;28.20;24.80;;;;;14.32;60.30;99731.44;5069403;28;8920;-76
2022/09/23 02:18:59;;;;;;;;;26.60;24.60;;;;;14.34;60.14;99734.91;5068728;28;9662;-76
2022/09/23 02:21:34;;;;;;;;;28.80;25.80;;;;;14.38;60.15;99738.38;5069120;28;8954;-76
2022/09/23 02:24:10;;;;;;;;;24.60;23.40;;;;;14.40;60.10;99737.47;5068944;28;8977;-76
2022/09/23 02:26:45;;;;;;;;;21.80;20.40;;;;;14.38;60.00;99744.47;5068475;28;9743;-76
2022/09/23 02:29:20;;;;;;;;;27.00;24.20;;;;;14.43;59.57;99739.19;5034008;28;8868;-76
2022/09/23 02:31:58;;;;;;;;;23.80;23.80;;;;;14.45;59.83;99739.16;5083320;28;8851;-75
2022/09/23 02:34:41;;;;;;;;;26.20;25.80;;;;;14.46;59.69;99735.63;5087896;28;8831;-78
2022/09/23 02:37:23;;;;;;;;;26.40;23.20;;;;;14.39;59.88;99732.25;5089235;28;8986;-76
2022/09/23 02:40:00;;;;;;;;;27.00;24.80;;;;;14.36;60.04;99740.16;5088019;28;8875;-76
2022/09/23 02:42:37;;;;;;;;;26.40;26.00;;;;;14.30;60.15;99745.47;5104888;27;8872;-74
2022/09/23 02:45:07;;;;;;;;;23.20;22.40;;;;;14.28;59.87;99742.88;5068804;28;8846;-76
2022/09/23 02:47:40;;;;;;;;;25.75;24.50;;;;;14.32;60.01;99751.56;5032796;28;8846;-73
2022/09/23 02:50:11;;;;;;;;;26.75;26.75;;;;;14.33;60.06;99751.56;5068602;28;8862;-75
2022/09/23 02:52:39;;;;;;;;;28.00;26.00;;;;;14.26;59.82;99756.91;5100741;28;8858;-76
2022/09/23 02:55:12;;;;;;;;;27.00;24.80;;;;;14.25;60.07;99753.38;5100780;28;8877;-75
2022/09/23 02:57:40;;;;;;;;;29.00;27.60;;;;;14.24;60.13;99746.41;5069544;28;8850;-75
2022/09/23 03:00:11;;;;;;;;;28.60;27.20;;;;;14.25;59.98;99763.88;5084231;28;8923;-76
2022/09/23 03:03:05;;;;;;;;;25.20;25.00;;;;;14.36;59.71;99756.75;5080829;28;8854;-75
2022/09/23 03:05:42;;;;;;;;;26.80;26.20;;;;;14.28;60.06;99763.84;5067854;28;8858;-75
2022/09/23 03:08:28;;;;;;;;;30.20;24.00;;;;;14.32;59.83;99762.91;5068599;28;8861;-76
2022/09/23 03:11:04;;;;;;;;;47.50;39.25;;;;;14.32;59.80;99762.06;5033983;28;8831;-74
2022/09/23 03:13:41;;;;;;;;;56.25;45.00;;;;;14.27;59.64;99759.47;5101135;28;8969;-77
2022/09/23 03:16:16;;;;;;;;;36.25;35.00;;;;;14.25;60.01;99763.88;5068260;28;8850;-74
2022/09/23 03:18:52;;;;;;;;;41.00;35.25;;;;;14.30;59.74;99756.84;5068760;28;8834;-75
2022/09/23 03:21:29;;;;;;;;;29.80;27.00;;;;;14.33;59.58;99758.53;5066927;28;8904;-75
2022/09/23 03:24:02;;;;;;;;;28.20;24.20;;;;;14.27;59.80;99753.38;5066044;28;8853;-77
2022/09/23 03:26:35;;;;;;;;;27.40;26.20;;;;;14.25;59.72;99753.38;5067057;28;8966;-75
2022/09/23 03:29:07;;;;;;;;;28.00;26.00;;;;;14.20;60.11;99750.84;5083770;28;8858;-77
2022/09/23 03:31:41;;;;;;;;;32.20;28.80;;;;;14.09;60.57;99759.72;5086762;28;8841;-75
2022/09/23 03:34:15;;;;;;;;;41.25;37.75;;;;;14.16;60.60;99756.16;5085641;28;8875;-75
2022/09/23 03:36:55;;;;;;;;;35.40;32.20;;;;;14.15;60.46;99760.50;5084920;28;8849;-75
2022/09/23 03:39:35;;;;;;;;;28.00;27.40;;;;;14.18;60.47;99751.75;5085368;28;8865;-76
2022/09/23 03:42:15;;;;;;;;;54.50;44.50;;;;;13.92;61.28;99768.63;5085093;28;8853;-75
2022/09/23 03:44:45;;;;;;;;;87.00;73.25;;;;;14.00;60.84;99771.16;5051872;28;8865;-75
2022/09/23 03:47:16;;;;;;;;;29.25;26.25;;;;;14.03;60.92;99758.91;5052182;28;10559;-77
2022/09/23 03:49:47;;;;;;;;;32.60;28.00;;;;;14.06;60.72;99760.59;5067249;28;9018;-75
2022/09/23 03:52:19;;;;;;;;;26.60;24.80;;;;;13.93;61.12;99754.66;5068356;28;8845;-75
2022/09/23 03:54:47;;;;;;;;;24.80;24.40;;;;;13.92;61.05;99770.41;5068302;28;8965;-76
2022/09/23 03:57:17;;;;;;;;;84.33;65.67;;;;;13.90;61.18;99762.53;5068224;28;8918;-76
2022/09/23 03:59:46;;;;;;;;;37.50;33.25;;;;;13.90;61.13;99762.53;5068067;28;8989;-77
2022/09/23 04:02:15;;;;;;;;;29.20;27.80;;;;;13.91;61.06;99764.25;5085752;28;8852;-74
2022/09/23 04:04:44;;;;;;;;;28.80;27.00;;;;;13.97;60.83;99766.84;5086379;28;8887;-75
2022/09/23 04:07:13;;;;;;;;;24.60;22.00;;;;;14.02;60.65;99764.16;5035370;28;8878;-75
2022/09/23 04:09:44;;;;;;;;;30.60;27.80;;;;;14.05;60.82;99761.50;5066531;28;8874;-75
2022/09/23 04:12:16;;;;;;;;;23.20;20.60;;;;;14.08;60.22;99763.22;5032513;28;8877;-77
2022/09/23 04:14:45;;;;;;;;;27.80;25.20;;;;;14.04;60.20;99765.91;5067443;28;8854;-76
2022/09/23 04:17:13;;;;;;;;;57.00;48.50;;;;;14.09;60.17;99765.81;5067504;28;8884;-74
2022/09/23 04:19:43;;;;;;;;;42.50;37.75;;;;;14.12;60.15;99764.91;5067626;28;8850;-76
2022/09/23 04:22:12;;;;;;;;;80.33;62.33;;;;;14.07;60.10;99767.59;5066912;28;8977;-77
2022/09/23 04:24:40;;;;;;;;;75.33;61.33;;;;;14.09;60.01;99764.97;5049511;28;9272;-74
2022/09/23 04:27:10;;;;;;;;;65.50;52.75;;;;;14.08;60.19;99771.09;5066319;28;9118;-75
2022/09/23 04:29:39;;;;;;;;;40.25;34.50;;;;;14.09;59.94;99771.06;5049330;28;8846;-77
2022/09/23 04:32:07;;;;;;;;;29.20;27.00;;;;;14.15;60.00;99778.84;5066690;28;8939;-76
2022/09/23 04:34:36;;;;;;;;;26.00;25.00;;;;;13.98;60.08;99778.19;5048781;28;8845;-76
2022/09/23 04:37:05;;;;;;;;;21.60;19.00;;;;;13.98;60.19;99768.56;5048372;28;8870;-75
2022/09/23 04:39:33;;;;;;;;;32.00;29.20;;;;;14.01;59.98;99770.31;5065805;28;8875;-75
2022/09/23 04:42:02;;;;;;;;;28.80;27.20;;;;;13.92;60.45;99773.00;5065889;28;8870;-75
2022/09/23 04:44:33;;;;;;;;;29.00;29.00;;;;;13.95;60.45;99765.09;5066008;28;8868;-76
2022/09/23 04:47:03;;;;;;;;;24.60;24.00;;;;;13.97;60.43;99776.44;5066990;28;8885;-76
2022/09/23 04:49:32;;;;;;;;;38.75;33.75;;;;;14.02;60.50;99772.88;5070699;28;8876;-76
2022/09/23 04:52:01;;;;;;;;;38.75;34.25;;;;;14.06;60.41;99778.09;5086982;28;8850;-76
2022/09/23 04:54:30;;;;;;;;;33.50;32.00;;;;;13.88;60.75;99773.94;5087923;28;8859;-74
2022/09/23 04:56:58;;;;;;;;;33.75;33.25;;;;;14.01;60.24;99768.53;5072063;28;8892;-76
2022/09/23 04:59:27;;;;;;;;;29.00;27.20;;;;;13.98;60.70;99776.44;5085720;28;8908;-76
2022/09/23 05:01:56;;;;;;;;;30.80;27.60;;;;;14.03;60.67;99776.41;5070211;28;8846;-76
2022/09/23 05:04:26;;;;;;;;;33.75;33.00;;;;;14.02;60.55;99779.88;5050878;28;9609;-75
2022/09/23 05:06:54;;;;;;;;;39.00;31.25;;;;;14.11;60.27;99774.53;5084519;28;8868;-75
2022/09/23 05:09:28;;;;;;;;;32.25;32.25;;;;;14.19;60.41;99779.69;5067838;28;8852;-74
2022/09/23 05:11:56;;;;;;;;;27.25;25.50;;;;;14.11;60.66;99782.41;5067798;28;8855;-77
2022/09/23 05:14:25;;;;;;;;;30.20;29.40;;;;;14.14;60.41;99790.25;5067391;28;8848;-75
2022/09/23 05:16:53;;;;;;;;;36.20;30.20;;;;;14.21;60.35;99794.56;5051380;28;8902;-77
2022/09/23 05:19:23;;;;;;;;;31.50;29.50;;;;;14.29;60.32;99794.47;5067644;28;9002;-77
2022/09/23 05:21:51;;;;;;;;;28.80;27.80;;;;;14.36;60.40;99790.00;5067760;28;8955;-78
2022/09/23 05:24:24;;;;;;;;;37.75;35.75;;;;;14.35;60.13;99797.00;5051343;28;8868;-76
2022/09/23 05:26:53;;;;;;;;;37.50;34.50;;;;;14.24;60.59;99797.13;5070304;28;9011;-75
2022/09/23 05:29:21;;;;;;;;;32.00;32.00;;;;;14.34;60.38;99797.88;5084644;28;8871;-76
2022/09/23 05:31:50;;;;;;;;;39.75;35.00;;;;;14.38;60.25;99796.94;5066838;28;8982;-74
2022/09/23 05:34:18;;;;;;;;;38.00;36.25;;;;;14.43;59.87;99792.53;5033870;28;9157;-75
2022/09/23 05:36:48;;;;;;;;;41.75;37.25;;;;;14.49;60.46;99790.72;5059841;28;9003;-75
2022/09/23 05:39:17;;;;;;;;;35.25;35.00;;;;;14.50;59.81;99792.44;5090823;28;9646;-76
2022/09/23 05:41:45;;;;;;;;;35.25;34.00;;;;;14.52;59.70;99798.56;5073658;28;10100;-76
2022/09/23 05:44:14;;;;;;;;;42.00;37.50;;;;;14.54;59.77;99792.41;5090951;28;8855;-76
2022/09/23 05:46:42;;;;;;;;;39.50;36.00;;;;;14.69;59.67;99795.72;5085034;28;8866;-75
2022/09/23 05:49:10;;;;;;;;;31.50;30.50;;;;;14.54;59.68;99792.41;5088104;28;8945;-76
2022/09/23 05:51:39;;;;;;;;;32.20;31.20;;;;;14.52;59.77;99798.56;5087728;28;9618;-77
2022/09/23 05:54:09;;;;;;;;;32.40;29.20;;;;;14.60;59.81;99800.22;5087301;28;8884;-76
2022/09/23 05:56:38;;;;;;;;;33.75;31.25;;;;;14.49;59.25;99801.22;5087111;28;9124;-77
2022/09/23 05:59:06;;;;;;;;;28.40;27.60;;;;;14.78;59.36;99799.13;5087022;28;8838;-77
2022/09/23 06:01:36;;;;;;;;;33.75;27.25;;;;;14.97;59.18;99789.22;5086984;28;8849;-76
2022/09/23 06:04:06;;;;;;;;;29.60;28.40;;;;;15.07;58.42;99800.47;5086554;28;8979;-77
2022/09/23 06:06:38;;;;;;;;;32.40;31.20;;;;;15.25;58.47;99806.31;5104772;28;8852;-77
2022/09/23 06:09:12;;;;;;;;;31.80;29.40;;;;;15.18;57.78;99805.56;5089890;28;8836;-77
2022/09/23 06:11:41;;;;;;;;;27.20;26.40;;;;;15.07;58.18;99807.47;5089531;28;9997;-76
2022/09/23 06:14:13;;;;;;;;;32.80;30.60;;;;;15.25;57.88;99809.81;5088057;28;8869;-76
2022/09/23 06:16:43;;;;;;;;;29.40;26.00;;;;;15.37;57.77;99809.63;5089183;28;8924;-76
2022/09/23 06:19:11;;;;;;;;;33.80;31.00;;;;;15.19;58.01;99813.38;5089487;28;8893;-77
2022/09/23 06:21:40;;;;;;;;;31.00;31.00;;;;;15.31;57.70;99809.72;5075495;28;8854;-79
2022/09/23 06:24:10;;;;;;;;;28.80;28.80;;;;;15.69;56.99;99802.97;5049495;28;8880;-77
2022/09/23 06:26:48;;;;;;;;;31.80;28.80;;;;;15.83;56.42;99804.53;5068736;28;8838;-77
2022/09/23 06:29:17;;;;;;;;;32.00;30.80;;;;;16.02;56.28;99805.06;5100768;28;8870;-77
2022/09/23 06:31:45;;;;;;;;;24.40;21.80;;;;;16.23;55.53;99807.25;5066869;28;8901;-77
2022/09/23 06:34:13;;;;;;;;;26.60;25.40;;;;;16.41;54.72;99810.41;5068525;28;9733;-78
2022/09/23 06:36:44;;;;;;;;;24.00;22.60;;;;;16.56;54.49;99803.09;5069229;28;8976;-76
2022/09/23 06:39:16;;;;;;;;;25.00;25.00;;;;;16.69;54.29;99810.72;5101552;27;8875;-76
2022/09/23 06:41:45;;;;;;;;;27.80;27.20;;;;;16.80;53.89;99805.22;5088540;28;8875;-76
2022/09/23 06:44:14;;;;;;;;;23.40;23.20;;;;;16.74;53.83;99804.44;5088676;28;8863;-76
2022/09/23 06:46:43;;;;;;;;;25.80;22.60;;;;;16.73;53.95;99804.50;5088413;28;8924;-77
2022/09/23 06:49:12;;;;;;;;;25.80;25.80;;;;;16.88;53.10;99808.59;5086690;28;8843;-76
2022/09/23 06:51:41;;;;;;;;;20.80;19.80;;;;;17.02;52.96;99809.16;5088560;28;8859;-76
2022/09/23 06:54:10;;;;;;;;;20.80;19.00;;;;;16.44;53.83;99815.63;5087970;28;8852;-76
2022/09/23 06:56:40;;;;;;;;;24.00;22.20;;;;;16.80;53.54;99818.41;5087984;28;8871;-75
2022/09/23 06:59:11;;;;;;;;;26.60;26.00;;;;;16.89;53.02;99813.81;5088770;28;8823;-77
2022/09/23 07:01:40;;;;;;;;;23.00;22.00;;;;;17.06;53.02;99816.06;5083333;28;8896;-76
2022/09/23 07:04:09;;;;;;;;;19.20;18.80;;;;;17.19;52.56;99811.41;5068098;28;8993;-78
2022/09/23 07:06:38;;;;;;;;;22.80;22.60;;;;;17.12;52.34;99823.84;5067733;28;8873;-76
2022/09/23 07:09:09;;;;;;;;;19.80;18.40;;;;;17.29;51.89;99825.22;5099952;28;8931;-78
2022/09/23 07:11:39;;;;;;;;;19.00;19.00;;;;;17.40;51.67;99823.19;5099629;28;8862;-76
2022/09/23 07:14:09;;;;;;;;;26.20;24.20;;;;;17.21;51.26;99830.69;5083414;28;8997;-77
2022/09/23 07:16:38;;;;;;;;;23.40;23.20;;;;;16.85;52.79;99838.50;5066694;28;8853;-79
2022/09/23 07:19:06;;;;;;;;;24.20;22.80;;;;;17.13;52.30;99836.13;5083348;28;8866;-77
2022/09/23 07:21:35;;;;;;;;;22.40;19.60;;;;;17.07;51.91;99831.00;5067186;28;8923;-77
2022/09/23 07:24:04;;;;;;;;;25.20;21.20;;;;;17.19;52.05;99823.72;5066706;28;8838;-80
2022/09/23 07:26:33;;;;;;;;;23.20;22.60;;;;;17.50;51.77;99835.28;5068308;28;9018;-77
2022/09/23 07:29:04;;;;;;;;;24.80;24.20;;;;;16.72;52.93;99837.84;5087468;28;8843;-76
2022/09/23 07:31:34;;;;;;;;;25.60;24.00;;;;;16.63;53.24;99831.91;5103850;28;8840;-77
2022/09/23 07:34:08;;;;;;;;;19.20;17.80;;;;;16.86;53.41;99831.47;5049390;28;9669;-77
2022/09/23 07:36:39;;;;;;;;;24.00;23.20;;;;;17.24;53.00;99822.72;5067600;28;8850;-77
2022/09/23 07:39:10;;;;;;;;;23.40;23.40;;;;;17.55;52.49;99824.59;5067418;28;9607;-77
2022/09/23 07:41:40;;;;;;;;;24.60;24.00;;;;;16.75;54.03;99834.31;5067559;28;8869;-75
2022/09/23 07:44:11;;;;;;;;;29.20;26.20;;;;;17.27;52.71;99837.56;5066786;28;8968;-77
2022/09/23 07:46:39;;;;;;;;;22.40;19.60;;;;;17.56;52.07;99841.28;5048001;28;8850;-76
2022/09/23 07:49:09;;;;;;;;;25.20;22.80;;;;;16.57;53.80;99839.03;5066641;28;8851;-77
2022/09/23 07:51:40;;;;;;;;;23.40;23.40;;;;;16.72;53.71;99844.91;5100048;27;8834;-75
2022/09/23 07:54:12;;;;;;;;;24.00;24.00;;;;;16.93;53.40;99839.19;5067664;28;8850;-75
2022/09/23 07:56:42;;;;;;;;;21.20;21.20;;;;;17.24;52.96;99841.16;5066418;28;8838;-76
2022/09/23 07:59:15;;;;;;;;;27.00;26.00;;;;;17.32;52.42;99840.97;5066310;28;8888;-76
2022/09/23 08:01:46;;;;;;;;;21.40;20.60;;;;;17.72;51.80;99848.78;5066030;28;8838;-79
2022/09/23 08:04:17;;;;;;;;;22.40;20.60;;;;;17.88;50.76;99840.50;5065922;28;8976;-76
2022/09/23 08:06:48;;;;;;;;;21.80;21.00;;;;;17.29;52.76;99841.03;5065769;28;8884;-77
2022/09/23 08:09:18;;;;;;;;;20.20;19.80;;;;;17.65;51.80;99843.69;5066118;28;8858;-77
2022/09/23 08:11:48;;;;;;;;;18.00;18.00;;;;;17.08;52.69;99847.66;5065818;28;8869;-77
2022/09/23 08:14:18;;;;;;;;;20.60;19.00;;;;;15.87;55.67;99849.13;5067205;28;8878;-76
2022/09/23 08:16:47;;;;;;;;;24.60;22.40;;;;;16.39;55.33;99855.22;5082359;28;8867;-76
2022/09/23 08:19:16;;;;;;;;;22.00;22.00;;;;;17.04;53.84;99854.78;5094843;28;9574;-76
2022/09/23 08:21:46;;;;;;;;;26.40;24.00;;;;;17.35;52.87;99854.06;5102776;28;8848;-77
2022/09/23 08:24:17;;;;;;;;;20.00;18.20;;;;;17.76;52.32;99848.72;5085586;28;8852;-78
2022/09/23 08:26:47;;;;;;;;;24.80;23.60;;;;;17.93;51.14;99846.53;5085537;28;8945;-76
2022/09/23 08:29:17;;;;;;;;;20.80;19.60;;;;;16.92;53.58;99853.28;5089548;28;8844;-76
2022/09/23 08:31:48;;;;;;;;;18.40;18.40;;;;;17.34;52.87;99834.75;5091610;28;9036;-76
2022/09/23 08:34:18;;;;;;;;;20.40;20.40;;;;;17.87;52.23;99833.50;5089900;28;9742;-78
2022/09/23 08:36:46;;;;;;;;;24.80;21.60;;;;;17.80;51.25;99835.38;5088655;28;8848;-76
2022/09/23 08:39:16;;;;;;;;;19.80;19.80;;;;;17.64;51.47;99848.09;5090920;28;8948;-76
2022/09/23 08:41:56;;;;;;;;;20.80;20.80;;;;;16.92;52.91;99847.16;5091061;28;8902;-77
2022/09/23 08:44:37;;;;;;;;;22.40;18.60;;;;;17.51;52.55;99839.63;5091033;28;8832;-76
2022/09/23 08:47:13;;;;;;;;;26.20;22.80;;;;;17.06;53.58;99845.06;5089354;28;8855;-77
2022/09/23 08:49:53;;;;;;;;;26.00;24.60;;;;;17.59;52.47;99841.22;5089369;28;8878;-79
2022/09/23 08:52:31;;;;;;;;;22.60;20.00;;;;;17.83;51.70;99834.47;5088459;28;8951;-77
2022/09/23 08:55:01;;;;;;;;;23.60;21.60;;;;;18.10;51.14;99838.19;5089061;28;8848;-76
2022/09/23 08:57:49;;;;;;;;;20.40;18.80;;;;;17.72;51.65;99838.22;5090689;28;8844;-76
2022/09/23 09:00:42;;;;;;;;;18.00;17.60;;;;;17.61;51.39;99842.03;5090581;28;8828;-77
2022/09/23 09:03:22;;;;;;;;;17.80;16.40;;;;;18.32;50.65;99835.84;5089346;28;9652;-78
2022/09/23 09:05:53;;;;;;;;;23.20;22.80;;;;;18.65;49.29;99833.13;5090385;28;8855;-78
2022/09/23 09:08:28;;;;;;;;;19.60;17.00;;;;;19.00;48.71;99829.47;5085671;28;8952;-77
2022/09/23 09:10:58;;;;;;;;;18.60;17.60;;;;;18.96;47.47;99827.84;5090345;28;8840;-78
2022/09/23 09:13:32;;;;;;;;;22.60;20.60;;;;;18.89;48.18;99821.00;5087135;28;8838;-77
2022/09/23 09:16:21;;;;;;;;;20.80;19.40;;;;;18.76;49.05;99824.91;5069447;28;8934;-76
2022/09/23 09:19:19;;;;;;;;;19.40;18.80;;;;;18.31;49.21;99824.38;5070516;28;8854;-77
2022/09/23 09:21:53;;;;;;;;;17.40;14.80;;;;;17.82;49.27;99822.16;5102932;28;8838;-77
2022/09/23 09:24:29;;;;;;;;;14.20;14.20;;;;;18.07;48.35;99825.06;5070572;28;8870;-77
2022/09/23 09:27:01;;;;;;;;;14.80;14.80;;;;;18.63;47.73;99809.38;5086697;28;8843;-78
2022/09/23 09:29:38;;;;;;;;;14.60;14.60;;;;;17.80;49.42;99821.34;5088974;28;8875;-78
2022/09/23 09:32:22;;;;;;;;;20.60;19.80;;;;;18.21;48.69;99817.63;5063856;28;8954;-76
2022/09/23 09:34:58;;;;;;;;;22.00;21.20;;;;;17.83;50.68;99822.13;5069682;28;8854;-78
2022/09/23 09:37:34;;;;;;;;;14.00;12.40;;;;;18.51;49.31;99825.63;5085212;28;9074;-77
2022/09/23 09:40:03;;;;;;;;;19.20;19.20;;;;;18.53;48.09;99818.50;5088238;28;9609;-74
2022/09/23 09:42:39;;;;;;;;;17.80;17.00;;;;;18.59;47.92;99828.88;5084491;28;8855;-75
2022/09/23 09:45:18;;;;;;;;;13.60;13.40;;;;;18.90;48.05;99820.06;5101588;28;8923;-76
2022/09/23 09:47:55;;;;;;;;;15.40;12.60;;;;;17.89;48.41;99824.63;5087179;28;8839;-76
2022/09/23 09:50:44;;;;;;;;;12.60;12.40;;;;;18.39;48.33;99820.66;5086407;28;8863;-75
2022/09/23 09:53:24;;;;;;;;;14.20;13.20;;;;;19.01;47.83;99823.25;5101874;27;8885;-76
2022/09/23 09:56:02;;;;;;;;;13.40;13.40;;;;;18.79;46.63;99824.78;5084568;28;8876;-75
2022/09/23 09:58:45;;;;;;;;;12.20;11.80;;;;;18.58;47.38;99824.53;5087445;28;8903;-75
2022/09/23 10:01:23;;;;;;;;;9.40;9.40;;;;;17.82;47.25;99827.44;5090112;28;8882;-79
2022/09/23 10:03:54;;;;;;;;;14.00;14.00;;;;;17.26;49.41;99830.59;5054345;28;8839;-77
2022/09/23 10:06:31;;;;;;;;;10.40;9.80;;;;;17.61;47.56;99827.06;5071662;28;8847;-75
2022/09/23 10:09:13;;;;;;;;;17.00;16.00;;;;;18.22;47.25;99831.69;5087136;28;8991;-76
2022/09/23 10:11:42;;;;;;;;;9.00;9.00;;;;;18.65;45.52;99819.91;5084802;28;8842;-76
2022/09/23 10:14:16;;;;;;;;;13.20;12.60;;;;;18.55;46.16;99818.47;5068908;28;8862;-75
2022/09/23 10:16:46;;;;;;;;;15.80;14.20;;;;;18.19;46.85;99818.59;5069146;28;8854;-75
2022/09/23 10:19:25;;;;;;;;;14.80;13.00;;;;;18.98;45.03;99815.44;5068199;28;8850;-75
2022/09/23 10:21:59;;;;;;;;;10.00;10.00;;;;;18.43;44.57;99823.19;5069194;28;8877;-74
2022/09/23 10:24:31;;;;;;;;;16.00;13.80;;;;;18.28;44.92;99819.19;5069085;28;8957;-76
2022/09/23 10:27:03;;;;;;;;;14.40;12.20;;;;;17.86;46.30;99823.84;5067466;28;8862;-75
2022/09/23 10:29:33;;;;;;;;;15.80;15.40;;;;;18.41;45.93;99814.44;5068298;28;8869;-76
2022/09/23 10:32:24;;;;;;;;;17.80;17.20;;;;;18.88;45.58;99811.34;5069514;28;8861;-77
2022/09/23 10:34:56;;;;;;;;;12.60;12.60;;;;;19.14;44.57;99802.59;5069763;28;8896;-73
2022/09/23 10:37:39;;;;;;;;;13.20;12.60;;;;;19.04;43.49;99806.47;5086730;28;8877;-74
2022/09/23 10:49:28;;;;;;;;;10.80;10.60;;;;;18.76;44.12;99795.84;5067834;28;8888;-75
2022/09/23 10:52:09;;;;;;;;;9.80;9.00;;;;;19.35;42.81;99798.41;5049513;28;9673;-75
2022/09/23 10:54:48;;;;;;;;;11.20;9.60;;;;;18.37;44.33;99802.22;5068238;28;8854;-75
2022/09/23 10:57:39;;;;;;;;;11.20;11.00;;;;;18.20;43.87;99807.13;5083088;28;8864;-76
2022/09/23 11:00:23;;;;;;;;;8.00;7.60;;;;;18.44;41.63;99800.28;5067842;28;8854;-75
2022/09/23 11:03:27;;;;;;;;;9.80;9.80;;;;;19.11;41.77;99791.25;5068772;28;9577;-76
2022/09/23 11:06:06;;;;;;;;;12.00;10.60;;;;;19.27;39.43;99789.88;5044958;28;8854;-77
2022/09/23 11:09:07;;;;;;;;;9.80;9.00;;;;;19.58;39.81;99784.41;5051786;28;8854;-76
2022/09/23 11:11:53;;;;;;;;;11.00;11.00;;;;;19.64;39.36;99778.94;5049297;28;8849;-76
2022/09/23 11:14:37;;;;;;;;;8.80;7.60;;;;;19.47;39.73;99781.28;5049320;28;8845;-77
2022/09/23 11:17:24;;;;;;;;;7.60;7.60;;;;;18.86;39.01;99778.81;5065577;28;8846;-77
2022/09/23 11:20:21;;;;;;;;;8.80;6.80;;;;;18.78;39.85;99783.44;5065429;28;8914;-75
2022/09/23 11:23:23;;;;;;;;;9.80;9.00;;;;;18.95;39.62;99775.88;5064193;28;8930;-76
2022/09/23 11:25:58;;;;;;;;;6.00;6.00;;;;;18.61;39.77;99783.94;4967001;28;8975;-78
2022/09/23 11:28:47;;;;;;;;;8.20;8.20;;;;;18.11;41.38;99784.50;4951726;28;8882;-75
2022/09/23 11:31:30;;;;;;;;;7.40;7.40;;;;;18.60;40.40;99779.56;4951405;28;8866;-75
2022/09/23 11:34:14;;;;;;;;;7.00;7.00;;;;;18.83;39.07;99777.13;4967170;28;8873;-76
2022/09/23 11:36:49;;;;;;;;;7.40;7.40;;;;;18.93;39.93;99769.78;4966816;28;8889;-75
2022/09/23 11:39:24;;;;;;;;;7.20;6.80;;;;;19.66;39.00;99765.66;4965707;28;8884;-75
2022/09/23 11:41:56;;;;;;;;;8.60;8.60;;;;;20.20;38.06;99763.75;4960763;28;8859;-78
2022/09/23 11:44:32;;;;;;;;;9.20;9.00;;;;;20.76;37.27;99759.94;5003507;28;8885;-75
2022/09/23 11:47:07;;;;;;;;;6.80;6.80;;;;;21.38;36.01;99756.53;4989139;28;8887;-78
2022/09/23 11:49:41;;;;;;;;;7.80;7.80;;;;;21.74;34.54;99749.78;4972184;28;8937;-80
2022/09/23 11:52:18;;;;;;;;;8.20;8.00;;;;;21.99;34.84;99750.41;5004466;28;8851;-76
2022/09/23 11:54:53;;;;;;;;;13.20;12.80;;;;;21.01;37.15;99758.03;5003476;28;8859;-76
2022/09/23 11:57:29;;;;;;;;;8.40;8.40;;;;;21.46;36.13;99748.28;5005097;28;8869;-77
2022/09/23 12:00:19;;;;;;;;;10.60;10.60;;;;;22.19;35.81;99746.88;5004867;28;8867;-78
2022/09/23 12:03:05;;;;;;;;;10.00;10.00;;;;;22.09;34.97;99742.88;5054403;28;8847;-77
2022/09/23 12:05:38;;;;;;;;;15.40;12.60;;;;;21.39;35.04;99744.97;5071243;28;8858;-76
2022/09/23 12:08:16;;;;;;;;;8.20;7.80;;;;;21.37;34.73;99738.88;5072537;28;8869;-76
2022/09/23 12:10:56;;;;;;;;;7.00;7.00;;;;;22.13;34.92;99735.63;5082927;28;8843;-76